sensor_id;sensor_type;location;lat;lon;timestamp;temperature;humidity
25450;DHT22;13371;52.080;5.624;2023-05-15T00:01:33;16.20;96.10
25450;DHT22;13371;52.080;5.624;2023-05-15T00:03:59;16.20;96.50
25450;DHT22;13371;52.080;5.624;2023-05-15T00:06:25;16.10;96.50
25450;DHT22;13371;52.080;5.624;2023-05-15T00:08:52;16.00;96.80
25450;DHT22;13371;52.080;5.624;2023-05-15T00:11:18;15.90;96.90
25450;DHT22;13371;52.080;5.624;2023-05-15T00:13:43;16.00;96.80
25450;DHT22;13371;52.080;5.624;2023-05-15T00:16:09;15.80;96.80
25450;DHT22;13371;52.080;5.624;2023-05-15T00:18:35;15.90;96.90
25450;DHT22;13371;52.080;5.624;2023-05-15T00:21:01;16.00;96.80
25450;DHT22;13371;52.080;5.624;2023-05-15T00:23:26;16.20;96.20
25450;DHT22;13371;52.080;5.624;2023-05-15T00:25:52;16.10;96.00
25450;DHT22;13371;52.080;5.624;2023-05-15T00:28:17;16.10;96.30
25450;DHT22;13371;52.080;5.624;2023-05-15T00:30:43;16.20;96.00
25450;DHT22;13371;52.080;5.624;2023-05-15T00:33:08;16.40;95.40
25450;DHT22;13371;52.080;5.624;2023-05-15T00:35:34;16.30;95.50
25450;DHT22;13371;52.080;5.624;2023-05-15T00:38:00;16.20;96.10
25450;DHT22;13371;52.080;5.624;2023-05-15T00:40:26;16.20;96.30
25450;DHT22;13371;52.080;5.624;2023-05-15T00:42:53;16.10;96.30
25450;DHT22;13371;52.080;5.624;2023-05-15T00:45:19;16.00;96.60
25450;DHT22;13371;52.080;5.624;2023-05-15T00:47:46;15.60;96.80
25450;DHT22;13371;52.080;5.624;2023-05-15T00:50:12;15.50;97.40
25450;DHT22;13371;52.080;5.624;2023-05-15T00:52:38;15.40;97.70
25450;DHT22;13371;52.080;5.624;2023-05-15T00:55:04;15.20;98.30
25450;DHT22;13371;52.080;5.624;2023-05-15T00:57:30;15.50;97.90
25450;DHT22;13371;52.080;5.624;2023-05-15T00:59:56;15.50;97.70
25450;DHT22;13371;52.080;5.624;2023-05-15T01:02:23;15.40;97.70
25450;DHT22;13371;52.080;5.624;2023-05-15T01:04:49;15.50;97.40
25450;DHT22;13371;52.080;5.624;2023-05-15T01:07:15;15.60;97.20
25450;DHT22;13371;52.080;5.624;2023-05-15T01:09:41;15.50;97.20
25450;DHT22;13371;52.080;5.624;2023-05-15T01:12:11;15.50;97.20
25450;DHT22;13371;52.080;5.624;2023-05-15T01:14:39;15.70;97.00
25450;DHT22;13371;52.080;5.624;2023-05-15T01:17:04;15.70;96.70
25450;DHT22;13371;52.080;5.624;2023-05-15T01:19:30;15.70;96.60
25450;DHT22;13371;52.080;5.624;2023-05-15T01:22:40;15.90;96.30
25450;DHT22;13371;52.080;5.624;2023-05-15T01:27:44;15.70;96.30
25450;DHT22;13371;52.080;5.624;2023-05-15T01:30:36;15.60;96.30
25450;DHT22;13371;52.080;5.624;2023-05-15T01:33:28;15.70;96.10
25450;DHT22;13371;52.080;5.624;2023-05-15T01:35:58;15.50;96.40
25450;DHT22;13371;52.080;5.624;2023-05-15T01:38:33;15.50;96.40
25450;DHT22;13371;52.080;5.624;2023-05-15T01:42:05;15.60;96.30
25450;DHT22;13371;52.080;5.624;2023-05-15T01:44:07;15.40;96.50
25450;DHT22;13371;52.080;5.624;2023-05-15T01:46:40;15.40;96.30
25450;DHT22;13371;52.080;5.624;2023-05-15T01:49:06;15.40;96.30
25450;DHT22;13371;52.080;5.624;2023-05-15T01:51:35;15.40;96.30
25450;DHT22;13371;52.080;5.624;2023-05-15T01:54:02;15.30;96.30
25450;DHT22;13371;52.080;5.624;2023-05-15T01:56:29;15.20;96.50
25450;DHT22;13371;52.080;5.624;2023-05-15T01:58:56;15.20;96.50
25450;DHT22;13371;52.080;5.624;2023-05-15T02:01:25;15.20;96.50
25450;DHT22;13371;52.080;5.624;2023-05-15T02:03:53;15.20;96.50
25450;DHT22;13371;52.080;5.624;2023-05-15T02:06:20;15.20;96.50
25450;DHT22;13371;52.080;5.624;2023-05-15T02:08:46;15.20;96.40
25450;DHT22;13371;52.080;5.624;2023-05-15T02:11:13;15.20;96.40
25450;DHT22;13371;52.080;5.624;2023-05-15T02:13:40;15.40;96.00
25450;DHT22;13371;52.080;5.624;2023-05-15T02:16:06;15.60;95.60
25450;DHT22;13371;52.080;5.624;2023-05-15T02:18:32;15.30;95.60
25450;DHT22;13371;52.080;5.624;2023-05-15T02:20:58;15.20;95.70
25450;DHT22;13371;52.080;5.624;2023-05-15T02:23:25;15.00;96.00
25450;DHT22;13371;52.080;5.624;2023-05-15T02:28:49;14.90;96.20
25450;DHT22;13371;52.080;5.624;2023-05-15T02:34:21;14.80;96.60
25450;DHT22;13371;52.080;5.624;2023-05-15T02:36:50;14.90;96.50
25450;DHT22;13371;52.080;5.624;2023-05-15T02:39:17;14.90;97.00
25450;DHT22;13371;52.080;5.624;2023-05-15T02:41:45;14.90;97.80
25450;DHT22;13371;52.080;5.624;2023-05-15T02:44:12;14.90;98.10
25450;DHT22;13371;52.080;5.624;2023-05-15T02:46:38;14.90;98.70
25450;DHT22;13371;52.080;5.624;2023-05-15T02:49:04;14.80;99.20
25450;DHT22;13371;52.080;5.624;2023-05-15T02:51:29;14.60;99.90
25450;DHT22;13371;52.080;5.624;2023-05-15T02:53:55;14.70;99.90
25450;DHT22;13371;52.080;5.624;2023-05-15T02:56:24;14.60;99.90
25450;DHT22;13371;52.080;5.624;2023-05-15T02:58:50;14.60;99.90
25450;DHT22;13371;52.080;5.624;2023-05-15T03:01:15;14.70;99.90
25450;DHT22;13371;52.080;5.624;2023-05-15T03:03:41;14.80;99.90
25450;DHT22;13371;52.080;5.624;2023-05-15T03:06:07;14.80;99.90
25450;DHT22;13371;52.080;5.624;2023-05-15T03:08:32;14.80;99.90
25450;DHT22;13371;52.080;5.624;2023-05-15T03:10:58;14.80;99.90
25450;DHT22;13371;52.080;5.624;2023-05-15T03:13:24;14.80;99.90
25450;DHT22;13371;52.080;5.624;2023-05-15T03:15:49;14.60;99.90
25450;DHT22;13371;52.080;5.624;2023-05-15T03:18:16;14.60;99.90
25450;DHT22;13371;52.080;5.624;2023-05-15T03:20:43;14.60;99.90
25450;DHT22;13371;52.080;5.624;2023-05-15T03:23:08;14.60;99.90
25450;DHT22;13371;52.080;5.624;2023-05-15T03:25:34;14.60;99.90
25450;DHT22;13371;52.080;5.624;2023-05-15T03:28:00;14.50;99.90
25450;DHT22;13371;52.080;5.624;2023-05-15T03:30:25;14.40;99.90
25450;DHT22;13371;52.080;5.624;2023-05-15T03:32:51;14.60;99.90
25450;DHT22;13371;52.080;5.624;2023-05-15T03:35:16;14.50;99.90
25450;DHT22;13371;52.080;5.624;2023-05-15T03:37:42;14.80;99.90
25450;DHT22;13371;52.080;5.624;2023-05-15T03:40:08;14.90;99.90
25450;DHT22;13371;52.080;5.624;2023-05-15T03:42:34;14.90;99.90
25450;DHT22;13371;52.080;5.624;2023-05-15T03:44:59;15.10;99.90
25450;DHT22;13371;52.080;5.624;2023-05-15T03:47:25;15.10;99.90
25450;DHT22;13371;52.080;5.624;2023-05-15T03:49:50;15.00;99.90
25450;DHT22;13371;52.080;5.624;2023-05-15T03:52:16;14.90;99.90
25450;DHT22;13371;52.080;5.624;2023-05-15T03:54:42;14.90;99.90
25450;DHT22;13371;52.080;5.624;2023-05-15T03:57:07;15.00;99.90
25450;DHT22;13371;52.080;5.624;2023-05-15T03:59:33;14.80;99.90
25450;DHT22;13371;52.080;5.624;2023-05-15T04:01:59;14.80;99.90
25450;DHT22;13371;52.080;5.624;2023-05-15T04:04:24;15.10;99.90
25450;DHT22;13371;52.080;5.624;2023-05-15T04:06:50;15.10;99.90
25450;DHT22;13371;52.080;5.624;2023-05-15T04:09:16;15.20;99.90
25450;DHT22;13371;52.080;5.624;2023-05-15T04:11:42;15.00;99.90
25450;DHT22;13371;52.080;5.624;2023-05-15T04:14:08;14.90;99.90
25450;DHT22;13371;52.080;5.624;2023-05-15T04:16:33;14.60;99.90
25450;DHT22;13371;52.080;5.624;2023-05-15T04:18:59;14.60;99.90
25450;DHT22;13371;52.080;5.624;2023-05-15T04:21:25;14.60;99.90
25450;DHT22;13371;52.080;5.624;2023-05-15T04:23:50;14.70;99.90
25450;DHT22;13371;52.080;5.624;2023-05-15T04:26:16;14.60;99.90
25450;DHT22;13371;52.080;5.624;2023-05-15T04:28:41;14.70;99.90
25450;DHT22;13371;52.080;5.624;2023-05-15T04:31:07;14.80;99.90
25450;DHT22;13371;52.080;5.624;2023-05-15T04:33:33;14.80;99.90
25450;DHT22;13371;52.080;5.624;2023-05-15T04:35:58;14.80;99.90
25450;DHT22;13371;52.080;5.624;2023-05-15T04:38:24;14.70;99.90
25450;DHT22;13371;52.080;5.624;2023-05-15T04:40:49;14.80;99.90
25450;DHT22;13371;52.080;5.624;2023-05-15T04:43:15;14.70;99.90
25450;DHT22;13371;52.080;5.624;2023-05-15T04:45:41;14.70;99.90
25450;DHT22;13371;52.080;5.624;2023-05-15T04:48:06;14.70;99.90
25450;DHT22;13371;52.080;5.624;2023-05-15T04:50:32;14.40;99.90
25450;DHT22;13371;52.080;5.624;2023-05-15T04:52:58;14.30;99.90
25450;DHT22;13371;52.080;5.624;2023-05-15T04:55:23;14.40;99.90
25450;DHT22;13371;52.080;5.624;2023-05-15T04:57:49;14.30;99.90
25450;DHT22;13371;52.080;5.624;2023-05-15T05:00:15;14.30;99.90
25450;DHT22;13371;52.080;5.624;2023-05-15T05:02:41;14.50;99.90
25450;DHT22;13371;52.080;5.624;2023-05-15T05:05:10;14.70;99.90
25450;DHT22;13371;52.080;5.624;2023-05-15T05:07:35;14.60;99.90
25450;DHT22;13371;52.080;5.624;2023-05-15T05:10:04;14.80;99.90
25450;DHT22;13371;52.080;5.624;2023-05-15T05:12:30;14.90;99.90
25450;DHT22;13371;52.080;5.624;2023-05-15T05:14:55;14.90;99.90
25450;DHT22;13371;52.080;5.624;2023-05-15T05:17:21;14.90;99.90
25450;DHT22;13371;52.080;5.624;2023-05-15T05:19:47;14.70;99.90
25450;DHT22;13371;52.080;5.624;2023-05-15T05:22:12;14.60;99.90
25450;DHT22;13371;52.080;5.624;2023-05-15T05:24:38;14.70;99.90
25450;DHT22;13371;52.080;5.624;2023-05-15T05:27:04;14.80;99.90
25450;DHT22;13371;52.080;5.624;2023-05-15T05:29:30;14.70;99.90
25450;DHT22;13371;52.080;5.624;2023-05-15T05:31:56;14.70;99.90
25450;DHT22;13371;52.080;5.624;2023-05-15T05:34:22;14.70;99.90
25450;DHT22;13371;52.080;5.624;2023-05-15T05:36:48;14.60;99.90
25450;DHT22;13371;52.080;5.624;2023-05-15T05:39:14;14.60;99.90
25450;DHT22;13371;52.080;5.624;2023-05-15T05:41:43;14.50;99.90
25450;DHT22;13371;52.080;5.624;2023-05-15T05:44:09;14.80;99.80
25450;DHT22;13371;52.080;5.624;2023-05-15T05:46:34;15.00;99.90
25450;DHT22;13371;52.080;5.624;2023-05-15T05:49:00;15.00;99.80
25450;DHT22;13371;52.080;5.624;2023-05-15T05:51:26;15.10;99.40
25450;DHT22;13371;52.080;5.624;2023-05-15T05:53:51;15.20;99.30
25450;DHT22;13371;52.080;5.624;2023-05-15T05:56:17;15.30;98.70
25450;DHT22;13371;52.080;5.624;2023-05-15T05:58:42;15.30;98.50
25450;DHT22;13371;52.080;5.624;2023-05-15T06:01:08;15.10;98.10
25450;DHT22;13371;52.080;5.624;2023-05-15T06:03:34;15.10;99.20
25450;DHT22;13371;52.080;5.624;2023-05-15T06:06:00;15.20;98.80
25450;DHT22;13371;52.080;5.624;2023-05-15T06:08:28;15.20;98.60
25450;DHT22;13371;52.080;5.624;2023-05-15T06:10:54;15.10;98.60
25450;DHT22;13371;52.080;5.624;2023-05-15T06:13:19;15.30;98.50
25450;DHT22;13371;52.080;5.624;2023-05-15T06:15:45;15.30;98.00
25450;DHT22;13371;52.080;5.624;2023-05-15T06:18:11;15.30;98.50
25450;DHT22;13371;52.080;5.624;2023-05-15T06:20:37;15.50;98.20
25450;DHT22;13371;52.080;5.624;2023-05-15T06:23:02;15.60;97.80
25450;DHT22;13371;52.080;5.624;2023-05-15T06:25:28;15.70;97.70
25450;DHT22;13371;52.080;5.624;2023-05-15T06:27:54;15.70;98.20
25450;DHT22;13371;52.080;5.624;2023-05-15T06:30:20;15.80;97.90
25450;DHT22;13371;52.080;5.624;2023-05-15T06:32:45;15.60;98.20
25450;DHT22;13371;52.080;5.624;2023-05-15T06:35:11;15.80;97.60
25450;DHT22;13371;52.080;5.624;2023-05-15T06:37:37;16.10;97.50
25450;DHT22;13371;52.080;5.624;2023-05-15T06:40:06;16.00;96.20
25450;DHT22;13371;52.080;5.624;2023-05-15T06:42:32;16.20;96.50
25450;DHT22;13371;52.080;5.624;2023-05-15T06:44:57;16.30;96.10
25450;DHT22;13371;52.080;5.624;2023-05-15T06:47:23;16.40;96.10
25450;DHT22;13371;52.080;5.624;2023-05-15T06:49:49;16.30;95.70
25450;DHT22;13371;52.080;5.624;2023-05-15T06:52:15;16.30;96.10
25450;DHT22;13371;52.080;5.624;2023-05-15T06:54:40;16.30;96.00
25450;DHT22;13371;52.080;5.624;2023-05-15T06:57:07;16.50;95.70
25450;DHT22;13371;52.080;5.624;2023-05-15T06:59:32;16.60;95.40
25450;DHT22;13371;52.080;5.624;2023-05-15T07:02:03;16.80;94.90
25450;DHT22;13371;52.080;5.624;2023-05-15T07:04:29;16.70;95.20
25450;DHT22;13371;52.080;5.624;2023-05-15T07:06:57;16.60;94.90
25450;DHT22;13371;52.080;5.624;2023-05-15T07:09:23;16.80;95.30
25450;DHT22;13371;52.080;5.624;2023-05-15T07:11:49;16.80;95.00
25450;DHT22;13371;52.080;5.624;2023-05-15T07:14:15;16.90;94.70
25450;DHT22;13371;52.080;5.624;2023-05-15T07:16:40;16.40;94.80
25450;DHT22;13371;52.080;5.624;2023-05-15T07:19:07;16.70;95.80
25450;DHT22;13371;52.080;5.624;2023-05-15T07:21:33;16.90;95.40
25450;DHT22;13371;52.080;5.624;2023-05-15T07:24:00;17.10;95.00
25450;DHT22;13371;52.080;5.624;2023-05-15T07:26:25;17.30;94.70
25450;DHT22;13371;52.080;5.624;2023-05-15T07:28:51;17.10;94.70
25450;DHT22;13371;52.080;5.624;2023-05-15T07:31:16;17.10;94.30
25450;DHT22;13371;52.080;5.624;2023-05-15T07:33:42;17.30;94.30
25450;DHT22;13371;52.080;5.624;2023-05-15T07:36:08;17.40;93.60
25450;DHT22;13371;52.080;5.624;2023-05-15T07:38:34;17.40;94.00
25450;DHT22;13371;52.080;5.624;2023-05-15T07:40:59;17.70;94.10
25450;DHT22;13371;52.080;5.624;2023-05-15T07:43:26;17.80;93.60
25450;DHT22;13371;52.080;5.624;2023-05-15T07:45:51;17.70;93.00
25450;DHT22;13371;52.080;5.624;2023-05-15T07:48:19;17.60;93.20
25450;DHT22;13371;52.080;5.624;2023-05-15T07:50:46;17.50;93.20
25450;DHT22;13371;52.080;5.624;2023-05-15T07:53:15;17.60;93.30
25450;DHT22;13371;52.080;5.624;2023-05-15T07:55:41;17.40;93.70
25450;DHT22;13371;52.080;5.624;2023-05-15T07:58:07;17.70;94.20
25450;DHT22;13371;52.080;5.624;2023-05-15T08:00:33;17.60;93.20
25450;DHT22;13371;52.080;5.624;2023-05-15T08:02:59;17.70;93.70
25450;DHT22;13371;52.080;5.624;2023-05-15T08:05:24;17.80;93.90
25450;DHT22;13371;52.080;5.624;2023-05-15T08:07:50;17.80;93.50
25450;DHT22;13371;52.080;5.624;2023-05-15T08:10:16;18.00;93.30
25450;DHT22;13371;52.080;5.624;2023-05-15T08:12:41;17.90;94.10
25450;DHT22;13371;52.080;5.624;2023-05-15T08:15:11;18.40;93.40
25450;DHT22;13371;52.080;5.624;2023-05-15T08:17:36;18.40;92.90
25450;DHT22;13371;52.080;5.624;2023-05-15T08:20:02;18.30;92.20
25450;DHT22;13371;52.080;5.624;2023-05-15T08:22:29;18.40;92.30
25450;DHT22;13371;52.080;5.624;2023-05-15T08:24:55;18.60;92.10
25450;DHT22;13371;52.080;5.624;2023-05-15T08:27:20;19.10;92.20
25450;DHT22;13371;52.080;5.624;2023-05-15T08:29:46;19.20;90.70
25450;DHT22;13371;52.080;5.624;2023-05-15T08:32:14;19.10;90.60
25450;DHT22;13371;52.080;5.624;2023-05-15T08:34:39;19.30;91.10
25450;DHT22;13371;52.080;5.624;2023-05-15T08:37:05;19.40;91.20
25450;DHT22;13371;52.080;5.624;2023-05-15T08:39:31;19.00;91.00
25450;DHT22;13371;52.080;5.624;2023-05-15T08:44:43;19.60;91.50
25450;DHT22;13371;52.080;5.624;2023-05-15T08:47:10;19.60;90.60
25450;DHT22;13371;52.080;5.624;2023-05-15T08:50:01;19.70;91.00
25450;DHT22;13371;52.080;5.624;2023-05-15T08:52:32;19.70;89.90
25450;DHT22;13371;52.080;5.624;2023-05-15T08:54:59;20.00;90.80
25450;DHT22;13371;52.080;5.624;2023-05-15T08:57:25;20.00;91.00
25450;DHT22;13371;52.080;5.624;2023-05-15T08:59:53;20.10;91.10
25450;DHT22;13371;52.080;5.624;2023-05-15T09:02:19;20.00;88.60
25450;DHT22;13371;52.080;5.624;2023-05-15T09:04:45;20.10;88.20
25450;DHT22;13371;52.080;5.624;2023-05-15T09:07:11;19.80;86.70
25450;DHT22;13371;52.080;5.624;2023-05-15T09:09:37;19.80;90.50
25450;DHT22;13371;52.080;5.624;2023-05-15T09:12:04;19.90;88.90
25450;DHT22;13371;52.080;5.624;2023-05-15T09:14:31;20.00;88.30
25450;DHT22;13371;52.080;5.624;2023-05-15T09:16:57;20.00;87.00
25450;DHT22;13371;52.080;5.624;2023-05-15T09:19:23;19.80;87.40
25450;DHT22;13371;52.080;5.624;2023-05-15T09:21:49;19.80;88.60
25450;DHT22;13371;52.080;5.624;2023-05-15T09:24:24;19.90;87.40
25450;DHT22;13371;52.080;5.624;2023-05-15T09:27:05;20.00;90.00
25450;DHT22;13371;52.080;5.624;2023-05-15T09:29:33;19.90;89.10
25450;DHT22;13371;52.080;5.624;2023-05-15T09:32:07;20.10;89.00
25450;DHT22;13371;52.080;5.624;2023-05-15T09:34:40;20.00;89.60
25450;DHT22;13371;52.080;5.624;2023-05-15T09:40:06;19.90;88.70
25450;DHT22;13371;52.080;5.624;2023-05-15T09:42:34;20.00;89.30
25450;DHT22;13371;52.080;5.624;2023-05-15T09:45:00;20.10;89.00
25450;DHT22;13371;52.080;5.624;2023-05-15T09:47:29;20.00;82.80
25450;DHT22;13371;52.080;5.624;2023-05-15T09:49:55;20.00;86.90
25450;DHT22;13371;52.080;5.624;2023-05-15T09:52:24;20.20;85.50
25450;DHT22;13371;52.080;5.624;2023-05-15T09:54:55;20.20;87.50
25450;DHT22;13371;52.080;5.624;2023-05-15T09:57:23;20.40;86.80
25450;DHT22;13371;52.080;5.624;2023-05-15T09:59:49;20.50;86.40
25450;DHT22;13371;52.080;5.624;2023-05-15T10:02:31;20.30;87.00
25450;DHT22;13371;52.080;5.624;2023-05-15T10:04:58;20.20;86.60
25450;DHT22;13371;52.080;5.624;2023-05-15T10:07:28;20.10;88.00
25450;DHT22;13371;52.080;5.624;2023-05-15T10:09:54;20.10;88.10
25450;DHT22;13371;52.080;5.624;2023-05-15T10:12:33;19.90;89.30
25450;DHT22;13371;52.080;5.624;2023-05-15T10:15:25;19.90;88.20
25450;DHT22;13371;52.080;5.624;2023-05-15T10:18:09;19.90;88.00
25450;DHT22;13371;52.080;5.624;2023-05-15T10:20:38;20.10;86.40
25450;DHT22;13371;52.080;5.624;2023-05-15T10:23:04;20.10;88.30
25450;DHT22;13371;52.080;5.624;2023-05-15T10:25:58;20.10;89.00
25450;DHT22;13371;52.080;5.624;2023-05-15T10:28:36;20.10;88.30
25450;DHT22;13371;52.080;5.624;2023-05-15T10:31:02;20.10;88.10
25450;DHT22;13371;52.080;5.624;2023-05-15T10:33:29;19.90;88.30
25450;DHT22;13371;52.080;5.624;2023-05-15T10:35:56;20.00;89.20
25450;DHT22;13371;52.080;5.624;2023-05-15T10:38:22;20.20;89.40
25450;DHT22;13371;52.080;5.624;2023-05-15T10:40:51;20.30;89.00
25450;DHT22;13371;52.080;5.624;2023-05-15T10:43:23;20.40;89.90
25450;DHT22;13371;52.080;5.624;2023-05-15T10:45:51;20.50;87.80
25450;DHT22;13371;52.080;5.624;2023-05-15T10:48:18;20.50;90.20
25450;DHT22;13371;52.080;5.624;2023-05-15T10:50:44;20.50;90.00
25450;DHT22;13371;52.080;5.624;2023-05-15T10:53:10;20.40;89.70
25450;DHT22;13371;52.080;5.624;2023-05-15T10:55:38;20.30;90.40
25450;DHT22;13371;52.080;5.624;2023-05-15T10:58:10;20.10;91.00
25450;DHT22;13371;52.080;5.624;2023-05-15T11:00:43;20.00;91.00
25450;DHT22;13371;52.080;5.624;2023-05-15T11:03:13;19.90;91.60
25450;DHT22;13371;52.080;5.624;2023-05-15T11:06:11;20.00;91.50
25450;DHT22;13371;52.080;5.624;2023-05-15T11:08:41;20.00;91.20
25450;DHT22;13371;52.080;5.624;2023-05-15T11:11:07;20.00;91.50
25450;DHT22;13371;52.080;5.624;2023-05-15T11:22:14;19.80;91.90
25450;DHT22;13371;52.080;5.624;2023-05-15T11:27:27;19.60;91.90
25450;DHT22;13371;52.080;5.624;2023-05-15T11:32:47;19.40;91.90
25450;DHT22;13371;52.080;5.624;2023-05-15T11:35:21;19.40;91.90
25450;DHT22;13371;52.080;5.624;2023-05-15T11:37:54;19.20;92.60
25450;DHT22;13371;52.080;5.624;2023-05-15T11:40:21;19.20;92.70
25450;DHT22;13371;52.080;5.624;2023-05-15T11:45:44;19.30;92.40
25450;DHT22;13371;52.080;5.624;2023-05-15T11:48:15;19.00;93.10
25450;DHT22;13371;52.080;5.624;2023-05-15T11:50:41;18.70;92.50
25450;DHT22;13371;52.080;5.624;2023-05-15T11:53:08;18.50;92.90
25450;DHT22;13371;52.080;5.624;2023-05-15T11:55:36;18.80;93.60
25450;DHT22;13371;52.080;5.624;2023-05-15T11:58:03;18.90;92.80
25450;DHT22;13371;52.080;5.624;2023-05-15T12:00:29;19.10;93.00
25450;DHT22;13371;52.080;5.624;2023-05-15T12:02:55;19.10;92.20
25450;DHT22;13371;52.080;5.624;2023-05-15T12:05:21;18.90;92.50
25450;DHT22;13371;52.080;5.624;2023-05-15T12:07:47;19.00;92.40
25450;DHT22;13371;52.080;5.624;2023-05-15T12:10:13;19.10;92.40
25450;DHT22;13371;52.080;5.624;2023-05-15T12:12:43;18.90;91.90
25450;DHT22;13371;52.080;5.624;2023-05-15T12:15:10;18.80;93.10
25450;DHT22;13371;52.080;5.624;2023-05-15T12:17:41;18.80;93.30
25450;DHT22;13371;52.080;5.624;2023-05-15T12:20:15;18.90;92.90
25450;DHT22;13371;52.080;5.624;2023-05-15T12:22:41;19.10;92.90
25450;DHT22;13371;52.080;5.624;2023-05-15T12:25:08;19.10;92.40
25450;DHT22;13371;52.080;5.624;2023-05-15T12:27:36;19.30;93.30
25450;DHT22;13371;52.080;5.624;2023-05-15T12:30:03;19.30;92.30
25450;DHT22;13371;52.080;5.624;2023-05-15T12:32:30;19.50;92.50
25450;DHT22;13371;52.080;5.624;2023-05-15T12:34:56;19.60;92.40
25450;DHT22;13371;52.080;5.624;2023-05-15T12:37:22;19.40;92.70
25450;DHT22;13371;52.080;5.624;2023-05-15T12:42:16;19.30;92.50
25450;DHT22;13371;52.080;5.624;2023-05-15T12:44:42;19.20;92.60
25450;DHT22;13371;52.080;5.624;2023-05-15T12:47:08;19.30;92.90
25450;DHT22;13371;52.080;5.624;2023-05-15T12:49:37;19.30;92.60
25450;DHT22;13371;52.080;5.624;2023-05-15T12:52:09;19.40;92.10
25450;DHT22;13371;52.080;5.624;2023-05-15T12:54:42;19.50;91.90
25450;DHT22;13371;52.080;5.624;2023-05-15T12:57:08;19.80;91.90
25450;DHT22;13371;52.080;5.624;2023-05-15T12:59:34;19.90;92.10
25450;DHT22;13371;52.080;5.624;2023-05-15T13:02:00;20.10;91.10
25450;DHT22;13371;52.080;5.624;2023-05-15T13:04:29;20.10;91.40
25450;DHT22;13371;52.080;5.624;2023-05-15T13:06:59;20.10;91.10
25450;DHT22;13371;52.080;5.624;2023-05-15T13:09:25;20.20;90.80
25450;DHT22;13371;52.080;5.624;2023-05-15T13:11:53;20.30;90.30
25450;DHT22;13371;52.080;5.624;2023-05-15T13:14:19;20.30;90.40
25450;DHT22;13371;52.080;5.624;2023-05-15T13:16:46;20.50;90.10
25450;DHT22;13371;52.080;5.624;2023-05-15T13:19:12;20.80;90.40
25450;DHT22;13371;52.080;5.624;2023-05-15T13:21:38;21.20;90.00
25450;DHT22;13371;52.080;5.624;2023-05-15T13:24:04;21.20;87.10
25450;DHT22;13371;52.080;5.624;2023-05-15T13:26:30;21.30;87.00
25450;DHT22;13371;52.080;5.624;2023-05-15T13:28:55;21.30;88.10
25450;DHT22;13371;52.080;5.624;2023-05-15T13:31:21;21.00;89.40
25450;DHT22;13371;52.080;5.624;2023-05-15T13:33:47;21.00;88.40
25450;DHT22;13371;52.080;5.624;2023-05-15T13:36:13;21.00;87.10
25450;DHT22;13371;52.080;5.624;2023-05-15T13:38:38;20.90;87.70
25450;DHT22;13371;52.080;5.624;2023-05-15T13:41:04;20.90;89.10
25450;DHT22;13371;52.080;5.624;2023-05-15T13:43:33;20.80;88.70
25450;DHT22;13371;52.080;5.624;2023-05-15T13:45:59;20.80;89.50
25450;DHT22;13371;52.080;5.624;2023-05-15T13:48:26;20.70;89.30
25450;DHT22;13371;52.080;5.624;2023-05-15T13:50:52;20.80;90.30
25450;DHT22;13371;52.080;5.624;2023-05-15T13:53:20;20.60;88.40
25450;DHT22;13371;52.080;5.624;2023-05-15T13:55:46;20.60;88.10
25450;DHT22;13371;52.080;5.624;2023-05-15T13:58:12;20.60;88.70
25450;DHT22;13371;52.080;5.624;2023-05-15T14:00:38;20.80;88.80
25450;DHT22;13371;52.080;5.624;2023-05-15T14:03:04;21.00;89.50
25450;DHT22;13371;52.080;5.624;2023-05-15T14:05:31;20.90;88.00
25450;DHT22;13371;52.080;5.624;2023-05-15T14:07:56;21.20;89.70
25450;DHT22;13371;52.080;5.624;2023-05-15T14:10:22;21.40;88.20
25450;DHT22;13371;52.080;5.624;2023-05-15T14:12:50;21.20;87.00
25450;DHT22;13371;52.080;5.624;2023-05-15T14:15:17;20.90;88.50
25450;DHT22;13371;52.080;5.624;2023-05-15T14:17:43;20.50;90.00
25450;DHT22;13371;52.080;5.624;2023-05-15T14:20:11;20.40;90.20
25450;DHT22;13371;52.080;5.624;2023-05-15T14:22:37;20.30;90.90
25450;DHT22;13371;52.080;5.624;2023-05-15T14:25:03;20.40;90.10
25450;DHT22;13371;52.080;5.624;2023-05-15T14:27:29;20.30;90.90
25450;DHT22;13371;52.080;5.624;2023-05-15T14:29:55;20.10;90.90
25450;DHT22;13371;52.080;5.624;2023-05-15T14:32:21;19.90;91.30
25450;DHT22;13371;52.080;5.624;2023-05-15T14:34:47;19.60;91.50
25450;DHT22;13371;52.080;5.624;2023-05-15T14:37:13;19.50;92.00
25450;DHT22;13371;52.080;5.624;2023-05-15T14:39:39;19.50;92.00
25450;DHT22;13371;52.080;5.624;2023-05-15T14:42:05;19.40;91.50
25450;DHT22;13371;52.080;5.624;2023-05-15T14:44:31;19.30;92.50
25450;DHT22;13371;52.080;5.624;2023-05-15T14:47:09;19.40;92.10
25450;DHT22;13371;52.080;5.624;2023-05-15T14:49:37;19.40;91.40
25450;DHT22;13371;52.080;5.624;2023-05-15T14:52:04;19.40;92.00
25450;DHT22;13371;52.080;5.624;2023-05-15T14:54:30;19.40;91.70
25450;DHT22;13371;52.080;5.624;2023-05-15T14:56:56;19.40;91.90
25450;DHT22;13371;52.080;5.624;2023-05-15T14:59:23;19.40;91.90
25450;DHT22;13371;52.080;5.624;2023-05-15T15:01:48;19.50;91.10
25450;DHT22;13371;52.080;5.624;2023-05-15T15:04:14;19.60;91.20
25450;DHT22;13371;52.080;5.624;2023-05-15T15:06:39;19.50;90.40
25450;DHT22;13371;52.080;5.624;2023-05-15T15:09:05;19.50;91.00
25450;DHT22;13371;52.080;5.624;2023-05-15T15:11:31;19.20;91.40
25450;DHT22;13371;52.080;5.624;2023-05-15T15:13:56;19.10;92.00
25450;DHT22;13371;52.080;5.624;2023-05-15T15:16:22;18.80;92.70
25450;DHT22;13371;52.080;5.624;2023-05-15T15:18:48;18.70;92.60
25450;DHT22;13371;52.080;5.624;2023-05-15T15:21:13;18.60;92.80
25450;DHT22;13371;52.080;5.624;2023-05-15T15:23:39;18.60;92.70
25450;DHT22;13371;52.080;5.624;2023-05-15T15:26:05;18.40;93.00
25450;DHT22;13371;52.080;5.624;2023-05-15T15:28:36;18.30;93.10
25450;DHT22;13371;52.080;5.624;2023-05-15T15:31:02;18.10;93.30
25450;DHT22;13371;52.080;5.624;2023-05-15T15:33:27;18.10;93.70
25450;DHT22;13371;52.080;5.624;2023-05-15T15:35:53;18.10;93.70
25450;DHT22;13371;52.080;5.624;2023-05-15T15:38:31;18.00;93.50
25450;DHT22;13371;52.080;5.624;2023-05-15T15:40:57;18.00;93.40
25450;DHT22;13371;52.080;5.624;2023-05-15T15:43:22;18.00;93.70
25450;DHT22;13371;52.080;5.624;2023-05-15T15:45:48;18.00;93.70
25450;DHT22;13371;52.080;5.624;2023-05-15T15:48:13;18.00;93.20
25450;DHT22;13371;52.080;5.624;2023-05-15T15:50:39;18.00;92.90
25450;DHT22;13371;52.080;5.624;2023-05-15T15:53:07;17.90;93.40
25450;DHT22;13371;52.080;5.624;2023-05-15T15:55:33;17.90;93.50
25450;DHT22;13371;52.080;5.624;2023-05-15T15:57:59;17.80;93.70
25450;DHT22;13371;52.080;5.624;2023-05-15T16:00:24;17.80;94.10
25450;DHT22;13371;52.080;5.624;2023-05-15T16:02:50;18.00;93.20
25450;DHT22;13371;52.080;5.624;2023-05-15T16:05:15;18.00;93.70